createdAt,value
2022-09-03T01:15:28.903Z,99.90
2022-09-03T01:46:00.633Z,99.90
2022-09-03T01:54:08.522Z,99.90
2022-09-03T02:01:49.958Z,99.90
2022-09-03T02:04:23.867Z,99.90
2022-09-03T02:06:53.551Z,99.90
2022-09-03T02:09:22.352Z,99.90
2022-09-03T02:15:47.812Z,99.90
2022-09-03T02:22:52.424Z,99.90
2022-09-03T02:25:22.224Z,99.90
2022-09-03T02:31:44.034Z,99.90
2022-09-03T02:34:42.625Z,99.90
2022-09-03T02:37:16.409Z,99.90
2022-09-03T02:39:48.800Z,99.90
2022-09-03T02:43:20.705Z,99.90
2022-09-03T02:46:05.836Z,99.90
2022-09-03T02:49:38.040Z,99.90
2022-09-03T02:52:15.253Z,99.90
2022-09-03T03:03:01.260Z,99.90
2022-09-03T03:05:46.427Z,99.90
2022-09-03T03:08:44.431Z,99.90
2022-09-03T03:11:13.945Z,99.90
2022-09-03T03:13:42.856Z,99.90
2022-09-03T03:16:12.287Z,99.90
2022-09-03T03:19:28.838Z,99.90
2022-09-03T03:22:00.327Z,99.90
2022-09-03T03:24:29.437Z,99.90
2022-09-03T03:26:59.535Z,99.90
2022-09-03T03:29:28.592Z,99.90
2022-09-03T03:31:58.269Z,99.90
2022-09-03T03:34:27.543Z,99.90
2022-09-03T03:42:35.898Z,99.90
2022-09-03T03:45:07.966Z,99.90
2022-09-03T03:49:04.932Z,99.90
2022-09-03T03:51:34.282Z,99.90
2022-09-03T03:55:35.186Z,99.90
2022-09-03T04:02:27.320Z,99.90
2022-09-03T04:09:49.577Z,99.90
2022-09-03T04:17:02.595Z,99.90
2022-09-03T04:19:33.224Z,99.90
2022-09-03T04:26:23.168Z,99.90
2022-09-03T04:28:52.582Z,99.90
2022-09-03T04:31:22.761Z,99.90
2022-09-03T04:34:20.096Z,99.90
2022-09-03T04:36:52.913Z,99.90
2022-09-03T04:40:23.083Z,99.90
2022-09-03T04:42:52.718Z,99.90
2022-09-03T04:45:21.680Z,99.90
2022-09-03T04:48:51.721Z,99.90
2022-09-03T04:55:36.493Z,99.90
2022-09-03T05:08:06.456Z,99.90
2022-09-03T05:10:38.191Z,99.90
2022-09-03T05:13:08.088Z,99.90
2022-09-03T05:16:34.000Z,99.90
2022-09-03T05:20:27.745Z,99.90
2022-09-03T05:22:57.209Z,99.90
2022-09-03T05:25:26.372Z,99.90
2022-09-03T05:32:39.586Z,99.90
2022-09-03T05:35:11.319Z,99.90
2022-09-03T05:41:58.166Z,99.90
2022-09-03T05:53:03.674Z,99.90
2022-09-03T05:56:02.289Z,99.90
2022-09-03T05:58:50.230Z,99.90
2022-09-03T06:01:20.567Z,99.90
2022-09-03T06:03:54.603Z,99.90
2022-09-03T06:06:26.231Z,99.90
2022-09-03T06:08:58.362Z,99.90
2022-09-03T06:11:57.375Z,99.90
2022-09-03T06:14:27.596Z,99.90
2022-09-03T06:17:53.435Z,99.90
2022-09-03T06:20:55.318Z,99.90
2022-09-03T06:23:24.395Z,99.90
2022-09-03T06:26:05.427Z,99.90
2022-09-03T06:28:40.858Z,99.90
2022-09-03T06:31:11.843Z,99.90
2022-09-03T06:33:42.850Z,99.90
2022-09-03T06:36:13.632Z,99.90
2022-09-03T06:38:43.253Z,99.90
2022-09-03T06:41:14.272Z,99.90
2022-09-03T06:43:46.684Z,99.90
2022-09-03T06:46:18.035Z,99.90
2022-09-03T06:49:15.831Z,99.90
2022-09-03T06:51:45.500Z,99.90
2022-09-03T06:54:16.067Z,99.90
2022-09-03T06:56:46.836Z,99.90
2022-09-03T06:59:25.285Z,99.90
2022-09-03T07:01:55.419Z,99.90
2022-09-03T07:04:25.131Z,99.90
2022-09-03T07:06:54.307Z,99.90
2022-09-03T07:09:23.385Z,99.90
2022-09-03T07:11:54.477Z,99.90
2022-09-03T07:14:24.869Z,99.90
2022-09-03T07:21:22.303Z,99.90
2022-09-03T07:23:53.421Z,99.90
2022-09-03T07:26:24.771Z,99.90
2022-09-03T07:31:28.781Z,99.90
2022-09-03T07:33:59.025Z,99.90
2022-09-03T07:36:35.514Z,99.90
2022-09-03T07:39:05.370Z,99.90
2022-09-03T07:41:35.114Z,99.90
2022-09-03T07:44:06.966Z,99.90
2022-09-03T07:46:39.357Z,99.90
2022-09-03T07:49:09.778Z,99.90
2022-09-03T07:51:40.459Z,99.90
2022-09-03T07:54:11.783Z,99.90
2022-09-03T07:56:41.763Z,99.90
2022-09-03T07:59:13.122Z,99.90
2022-09-03T08:01:42.660Z,99.90
2022-09-03T08:04:11.966Z,99.90
2022-09-03T08:06:42.388Z,99.90
2022-09-03T08:09:14.075Z,99.90
2022-09-03T08:11:44.979Z,99.90
2022-09-03T08:14:16.914Z,99.90
2022-09-03T08:16:48.784Z,99.90
2022-09-03T08:19:18.777Z,99.90
2022-09-03T08:21:49.058Z,99.90
2022-09-03T08:24:19.337Z,99.90
2022-09-03T08:26:52.090Z,99.90
2022-09-03T08:29:23.241Z,99.90
2022-09-03T08:31:52.678Z,99.90
2022-09-03T08:34:21.110Z,99.90
2022-09-03T08:36:50.613Z,99.90
2022-09-03T08:39:20.185Z,99.90
2022-09-03T08:42:28.348Z,99.90
2022-09-03T08:45:02.799Z,99.90
2022-09-03T08:47:38.425Z,99.90
2022-09-03T08:50:12.923Z,99.90
2022-09-03T08:52:50.141Z,99.90
2022-09-03T08:55:25.147Z,99.90
2022-09-03T08:58:02.246Z,99.90
2022-09-03T09:00:48.523Z,99.90
2022-09-03T09:03:35.059Z,99.90
2022-09-03T09:06:13.422Z,99.90
2022-09-03T09:08:53.407Z,99.90
2022-09-03T09:11:33.380Z,99.90
2022-09-03T09:14:07.032Z,99.90
2022-09-03T09:16:47.598Z,99.90
2022-09-03T09:19:37.229Z,99.90
2022-09-03T09:22:12.204Z,99.90
2022-09-03T09:24:45.151Z,99.90
2022-09-03T09:27:17.435Z,99.90
2022-09-03T09:29:51.818Z,99.90
2022-09-03T09:32:22.709Z,99.90
2022-09-03T09:34:52.667Z,99.90
2022-09-03T09:38:26.404Z,99.90
2022-09-03T09:40:57.330Z,99.90
2022-09-03T09:43:26.310Z,99.90
2022-09-03T09:45:55.799Z,99.90
2022-09-03T09:49:29.385Z,99.90
2022-09-03T09:52:18.846Z,99.90
2022-09-03T10:00:09.061Z,99.60
2022-09-03T10:02:42.530Z,99.60
2022-09-03T10:05:17.026Z,99.70
2022-09-03T10:13:10.748Z,98.60
2022-09-03T10:15:46.586Z,99.20
2022-09-03T10:18:29.709Z,99.10
2022-09-03T10:21:06.897Z,99.40
2022-09-03T10:23:51.674Z,98.60
2022-09-03T10:26:32.368Z,99.10
2022-09-03T10:29:22.091Z,99.00
2022-09-03T10:32:24.495Z,99.00
2022-09-03T10:35:22.972Z,98.80
2022-09-03T11:01:54.501Z,97.80
2022-09-03T11:04:30.452Z,97.60
2022-09-03T11:07:09.361Z,97.50
2022-09-03T11:09:42.674Z,97.40
2022-09-03T11:12:17.945Z,97.60
2022-09-03T11:14:51.603Z,98.00
2022-09-03T11:17:26.616Z,98.30
2022-09-03T11:20:00.718Z,99.00
2022-09-03T11:22:30.985Z,98.50
2022-09-03T11:25:03.756Z,98.80
2022-09-03T11:27:56.939Z,98.20
2022-09-03T12:57:47.181Z,97.50
2022-09-03T13:00:18.950Z,97.60
2022-09-03T13:02:52.447Z,98.30
2022-09-03T13:05:24.137Z,97.80
2022-09-03T13:07:57.243Z,98.20
2022-09-03T13:10:30.423Z,98.70
2022-09-03T13:13:02.855Z,98.60
2022-09-03T13:15:32.176Z,99.60
2022-09-03T13:18:14.196Z,98.80
2022-09-03T13:20:54.183Z,99.10
2022-09-03T13:23:41.178Z,99.50
2022-09-03T13:26:23.388Z,99.70
2022-09-03T13:29:09.235Z,99.80
2022-09-03T13:31:42.140Z,99.60
2022-09-03T13:34:18.201Z,99.10
2022-09-03T13:36:51.931Z,98.90
2022-09-03T13:39:29.441Z,99.30
2022-09-03T13:42:07.432Z,99.60
2022-09-03T13:44:46.620Z,99.20
2022-09-03T13:47:27.812Z,99.10
2022-09-03T13:50:23.584Z,99.50
2022-09-03T13:52:59.396Z,99.50
2022-09-03T13:55:38.066Z,99.80
2022-09-03T13:58:13.453Z,99.90
2022-09-03T14:00:45.817Z,99.90
2022-09-03T14:03:26.548Z,99.90
2022-09-03T14:06:09.580Z,99.90
2022-09-03T14:08:58.697Z,99.90
2022-09-03T14:11:35.899Z,99.90
2022-09-03T14:14:15.389Z,99.90
2022-09-03T14:16:50.780Z,99.90
2022-09-03T14:19:28.623Z,99.90
2022-09-03T14:22:03.430Z,99.90
2022-09-03T14:24:41.270Z,99.90
2022-09-03T14:27:11.988Z,99.90
2022-09-03T14:29:51.597Z,99.90
2022-09-03T14:32:32.010Z,99.90
2022-09-03T14:35:29.277Z,99.90
2022-09-03T14:38:27.888Z,99.90
2022-09-03T14:41:08.078Z,99.90
2022-09-03T14:44:05.344Z,99.90
2022-09-03T14:46:55.931Z,99.90
2022-09-03T14:49:48.687Z,99.90
2022-09-03T14:52:44.787Z,99.90
2022-09-03T14:55:24.912Z,99.90
2022-09-03T14:58:17.800Z,99.90
2022-09-03T15:00:55.909Z,99.90
2022-09-03T15:03:50.824Z,99.90
2022-09-03T15:06:31.194Z,99.90
2022-09-03T15:09:24.353Z,99.90
2022-09-03T15:11:57.937Z,99.90
2022-09-03T15:14:31.345Z,99.90
2022-09-03T15:17:32.461Z,99.90
2022-09-03T15:20:18.160Z,99.90
2022-09-03T15:23:12.173Z,99.90
2022-09-03T15:26:17.920Z,99.90
2022-09-03T15:28:59.126Z,99.90
2022-09-03T15:31:39.315Z,99.90
2022-09-03T15:34:20.926Z,99.90
2022-09-03T15:36:54.020Z,99.90
2022-09-03T15:39:26.733Z,99.90
2022-09-03T15:42:00.471Z,99.90
2022-09-03T15:44:38.129Z,99.90
2022-09-03T15:47:14.276Z,99.90
2022-09-03T15:49:55.302Z,99.90
2022-09-03T15:52:33.740Z,99.90
2022-09-03T15:55:09.887Z,99.90
2022-09-03T15:57:47.541Z,99.90
2022-09-03T16:00:21.523Z,99.90
2022-09-03T16:02:59.161Z,99.90
2022-09-03T16:05:42.981Z,99.90
2022-09-03T16:08:21.050Z,99.90
2022-09-03T16:11:03.397Z,99.90
2022-09-03T16:13:47.234Z,99.90
2022-09-03T16:16:22.906Z,99.90
2022-09-03T16:19:01.240Z,99.90
2022-09-03T16:21:40.169Z,99.90
2022-09-03T16:24:19.606Z,99.90
2022-09-03T16:26:52.165Z,99.90
2022-09-03T16:29:27.938Z,99.90
2022-09-03T16:32:19.544Z,99.90
2022-09-03T16:35:00.147Z,99.90
2022-09-03T16:37:36.617Z,99.90
2022-09-03T16:40:16.179Z,99.90
2022-09-03T16:42:52.181Z,99.80
2022-09-03T16:45:29.419Z,99.80
2022-09-03T16:48:14.825Z,99.90
2022-09-03T16:50:59.491Z,99.90
2022-09-03T16:53:41.129Z,99.90
2022-09-03T16:56:31.938Z,99.90
2022-09-03T16:59:10.590Z,99.90
2022-09-03T17:01:53.750Z,99.90
2022-09-03T17:04:49.639Z,99.90
2022-09-03T17:07:31.259Z,99.90
2022-09-03T17:10:11.112Z,99.90
2022-09-03T17:12:49.807Z,99.90
2022-09-03T17:15:36.919Z,99.90
2022-09-03T17:18:33.613Z,99.90
2022-09-03T17:21:22.014Z,99.90
2022-09-03T17:24:03.762Z,99.90
2022-09-03T17:26:41.796Z,99.90
2022-09-03T17:29:26.493Z,99.90
2022-09-03T17:32:03.327Z,99.90
2022-09-03T17:34:47.286Z,99.90
2022-09-03T17:37:28.787Z,99.90
2022-09-03T17:40:15.843Z,99.90
2022-09-03T17:42:56.276Z,99.90
2022-09-03T17:45:39.259Z,99.90
2022-09-03T17:48:25.983Z,99.90
2022-09-03T17:51:00.804Z,99.90
2022-09-03T17:53:38.631Z,99.90
2022-09-03T17:56:13.164Z,99.90
2022-09-03T17:58:50.736Z,99.90
2022-09-03T18:01:26.379Z,99.90
2022-09-03T18:03:57.420Z,99.90
2022-09-03T18:06:34.246Z,99.90
2022-09-03T18:09:08.593Z,99.90
2022-09-03T18:11:42.045Z,99.90
2022-09-03T18:14:25.913Z,99.90
2022-09-03T18:17:03.360Z,99.90
2022-09-03T18:19:55.784Z,99.90
2022-09-03T18:22:48.375Z,99.90
2022-09-03T18:25:36.291Z,99.90
2022-09-03T18:28:26.298Z,99.90
2022-09-03T18:31:14.695Z,99.90
2022-09-03T18:34:01.876Z,99.90
2022-09-03T18:36:50.781Z,99.90
2022-09-03T18:39:42.812Z,99.90
2022-09-03T18:42:42.000Z,99.90
2022-09-03T18:46:07.938Z,99.90
2022-09-03T18:48:55.121Z,99.90
2022-09-03T18:51:50.105Z,99.90
2022-09-03T18:55:07.283Z,99.90
2022-09-03T18:58:05.445Z,99.90
2022-09-03T19:00:58.953Z,99.90
2022-09-03T19:04:02.554Z,99.90
2022-09-03T19:06:59.541Z,99.90
2022-09-03T19:10:00.192Z,99.90
2022-09-03T19:13:00.081Z,99.90
2022-09-03T19:15:53.613Z,99.90
2022-09-03T19:18:56.055Z,99.90
2022-09-03T19:21:50.729Z,99.90
2022-09-03T19:24:40.019Z,99.90
2022-09-03T19:27:53.108Z,99.90
2022-09-03T19:30:40.725Z,99.90
2022-09-03T19:33:34.642Z,99.90
2022-09-03T19:36:30.204Z,99.90
2022-09-03T19:39:29.700Z,99.90
2022-09-03T19:42:23.562Z,99.90
2022-09-03T19:45:20.251Z,99.90
2022-09-03T19:48:21.836Z,99.90
2022-09-03T19:51:18.750Z,99.90
2022-09-03T19:54:07.854Z,99.90
2022-09-03T19:56:58.217Z,99.90
2022-09-03T19:59:54.945Z,99.90
2022-09-03T20:02:43.449Z,99.90
2022-09-03T20:05:34.980Z,99.90
2022-09-03T20:08:21.980Z,99.90
2022-09-03T20:10:57.167Z,99.90
2022-09-03T20:13:26.253Z,99.90
2022-09-03T20:16:03.026Z,99.90
2022-09-03T20:18:44.046Z,99.90
2022-09-03T20:21:20.645Z,99.90
2022-09-03T20:23:58.431Z,99.90
2022-09-03T20:26:42.191Z,99.90
2022-09-03T20:29:34.258Z,99.90
2022-09-03T20:32:13.005Z,99.90
2022-09-03T20:34:51.554Z,99.90
2022-09-03T20:37:28.449Z,99.90
2022-09-03T20:40:08.799Z,99.90
2022-09-03T20:43:00.986Z,99.90
2022-09-03T20:45:42.375Z,99.70
2022-09-03T20:48:23.917Z,99.90
2022-09-03T20:50:59.623Z,99.90
2022-09-03T20:53:49.738Z,99.90
2022-09-03T20:56:26.852Z,99.90
2022-09-03T20:59:05.416Z,99.90
2022-09-03T21:01:41.632Z,99.90
2022-09-03T21:04:31.500Z,99.90
2022-09-03T21:07:09.696Z,99.90
2022-09-03T21:09:42.916Z,99.90
2022-09-03T21:12:19.378Z,99.90
2022-09-03T21:14:56.008Z,99.90
2022-09-03T21:17:40.287Z,99.90
2022-09-03T21:20:18.397Z,99.90
2022-09-03T21:23:00.660Z,99.90
2022-09-03T21:25:34.794Z,99.90
2022-09-03T21:28:08.261Z,99.90
2022-09-03T21:30:43.393Z,99.90
2022-09-03T21:33:18.162Z,99.90
2022-09-03T21:35:53.326Z,99.90
2022-09-03T21:38:26.854Z,99.90
2022-09-03T21:41:01.544Z,99.90
2022-09-03T21:43:35.233Z,99.90
2022-09-03T21:46:10.218Z,99.90
2022-09-03T21:48:41.917Z,99.90
2022-09-03T21:51:16.466Z,99.90
2022-09-03T21:53:53.358Z,99.90
2022-09-03T21:56:44.989Z,99.90
2022-09-03T21:59:24.930Z,99.90
2022-09-03T22:02:02.144Z,99.90
2022-09-03T22:04:31.915Z,99.90
2022-09-03T22:07:09.172Z,99.90
2022-09-03T22:09:46.208Z,99.90
2022-09-03T22:12:21.951Z,99.90
2022-09-03T22:14:55.909Z,99.90
2022-09-03T22:17:44.069Z,99.90
2022-09-03T22:20:14.670Z,99.90
2022-09-03T22:22:48.489Z,99.90
2022-09-03T22:25:23.536Z,99.90
2022-09-03T22:28:02.266Z,99.90
2022-09-03T22:30:41.667Z,99.90
2022-09-03T22:33:16.552Z,99.90
2022-09-03T22:36:11.868Z,99.90
2022-09-03T22:39:14.791Z,99.90
2022-09-03T22:42:10.179Z,99.90
2022-09-03T22:44:57.675Z,99.90
2022-09-03T22:47:37.642Z,99.90
2022-09-03T22:50:17.254Z,99.90
2022-09-03T22:52:47.466Z,99.90
2022-09-03T22:55:18.611Z,99.90
2022-09-03T22:57:57.624Z,99.90
2022-09-03T23:00:27.752Z,99.90
2022-09-03T23:03:04.912Z,99.90
2022-09-03T23:05:51.530Z,99.90
2022-09-03T23:08:25.793Z,99.90
2022-09-03T23:11:02.852Z,99.90
2022-09-03T23:13:37.862Z,99.90
2022-09-03T23:16:14.604Z,99.90
2022-09-03T23:18:47.857Z,99.90
2022-09-03T23:21:33.306Z,99.90
2022-09-03T23:24:09.505Z,99.90
2022-09-03T23:26:42.589Z,99.90
2022-09-03T23:29:18.034Z,99.90
2022-09-03T23:31:47.634Z,99.90
2022-09-03T23:34:17.381Z,99.90
2022-09-03T23:37:29.583Z,99.90
2022-09-03T23:40:14.983Z,99.90
2022-09-03T23:43:07.212Z,99.90
2022-09-03T23:45:46.218Z,99.90
2022-09-03T23:48:26.777Z,99.90
2022-09-03T23:51:07.654Z,99.90
2022-09-03T23:53:50.454Z,99.90
2022-09-03T23:56:40.671Z,99.90
2022-09-03T23:59:16.647Z,99.90
